Alvord, Iowa
Current Conditions -  °F | °C
As of 4:14 AM on Monday 26 Jan 2015 (Local Time) from KLYV Reporting Station
Clear Clear  
Wind Chill: 25°   Ceiling: Unl
Heat Index: 34°   Visibility: 10mi
Dew Point: 32°   Wind: 13mph
Humidity: 93%   Direction: 200°SSW
Pressure: 29.8"   Gusts: NA
Location:  43.34°N, 96.3°W
Report Text: KLYV 261014Z AUTO 20011KT 10SM CLR 01/00 A2980 RMK AO2
Loading
Personal Weather Stations






























Interactive Weather Map New forecast layout! Learn more

10-Day Weather Forecast

Advertisements
Track Severe Weather on mobile